createdAt,value
2018-01-23T00:00:02.201Z,37.75
2018-01-23T00:00:34.203Z,37.95
2018-01-23T00:01:06.227Z,37.85
2018-01-23T00:01:38.226Z,37.75
2018-01-23T00:02:10.174Z,37.56
2018-01-23T00:02:42.158Z,37.95
2018-01-23T00:03:14.116Z,37.95
2018-01-23T00:03:46.141Z,37.85
2018-01-23T00:04:18.309Z,37.95
2018-01-23T00:04:50.477Z,37.85
2018-01-23T00:05:22.478Z,37.85
2018-01-23T00:05:54.532Z,37.75
2018-01-23T00:06:26.524Z,37.95
2018-01-23T00:06:58.680Z,37.75
2018-01-23T00:07:30.715Z,37.75
2018-01-23T00:08:02.718Z,37.73
2018-01-23T00:08:34.737Z,37.95
2018-01-23T00:09:06.878Z,37.95
2018-01-23T00:09:38.904Z,37.85
2018-01-23T00:10:10.930Z,37.95
2018-01-23T00:10:42.976Z,37.65
2018-01-23T00:11:14.963Z,37.85
2018-01-23T00:11:46.988Z,37.95
2018-01-23T00:12:18.957Z,37.85
2018-01-23T00:12:51.504Z,37.95
2018-01-23T00:13:23.526Z,37.85
2018-01-23T00:13:55.528Z,37.95
2018-01-23T00:14:27.507Z,37.95
2018-01-23T00:14:59.490Z,37.95
2018-01-23T00:15:31.572Z,37.75
2018-01-23T00:16:03.567Z,37.75
2018-01-23T00:16:35.589Z,37.95
2018-01-23T00:17:07.567Z,37.85
2018-01-23T00:17:40.500Z,37.95
2018-01-23T00:18:13.215Z,37.85
2018-01-23T00:18:45.231Z,37.95
2018-01-23T00:19:17.306Z,38.04
2018-01-23T00:19:49.368Z,37.95
2018-01-23T00:20:21.377Z,37.75
2018-01-23T00:20:53.406Z,37.85
2018-01-23T00:21:25.400Z,37.85
2018-01-23T00:21:57.391Z,37.75
2018-01-23T00:22:30.091Z,37.85
2018-01-23T00:23:02.100Z,38.04
2018-01-23T00:23:34.122Z,37.85
2018-01-23T00:24:06.144Z,37.85
2018-01-23T00:24:38.157Z,38.04
2018-01-23T00:25:10.155Z,37.85
2018-01-23T00:25:42.166Z,37.85
2018-01-23T00:26:14.796Z,37.85
2018-01-23T00:26:46.828Z,37.85
2018-01-23T00:27:18.830Z,37.85
2018-01-23T00:27:50.966Z,38.14
2018-01-23T00:28:22.972Z,37.85
2018-01-23T00:28:54.969Z,37.85
2018-01-23T00:29:26.969Z,37.85
2018-01-23T00:29:58.958Z,37.95
2018-01-23T00:30:30.991Z,37.85
2018-01-23T00:31:03.085Z,37.95
2018-01-23T00:31:35.054Z,37.85
2018-01-23T00:32:07.065Z,37.85
2018-01-23T00:32:39.622Z,38.14
2018-01-23T00:33:11.608Z,37.85
2018-01-23T00:33:43.613Z,37.95
2018-01-23T00:34:15.568Z,37.65
2018-01-23T00:34:48.480Z,37.95
2018-01-23T00:35:20.616Z,37.95
2018-01-23T00:35:52.605Z,37.95
2018-01-23T00:36:24.616Z,38.14
2018-01-23T00:36:56.609Z,37.85
2018-01-23T00:37:28.649Z,38.04
2018-01-23T00:38:00.648Z,38.04
2018-01-23T00:38:32.676Z,37.75
2018-01-23T00:39:04.843Z,38.04
2018-01-23T00:39:36.866Z,37.75
2018-01-23T00:40:08.897Z,38.04
2018-01-23T00:40:40.888Z,38.04
2018-01-23T00:41:12.949Z,37.95
2018-01-23T00:41:44.962Z,37.95
2018-01-23T00:42:17.813Z,37.75
2018-01-23T00:42:49.832Z,38.14
2018-01-23T00:43:21.822Z,38.04
2018-01-23T00:43:53.823Z,38.14
2018-01-23T00:44:26.289Z,38.23
2018-01-23T00:44:58.282Z,37.85
2018-01-23T00:45:30.281Z,37.95
2018-01-23T00:46:02.230Z,37.75
2018-01-23T00:46:34.207Z,37.85
2018-01-23T00:47:06.303Z,38.14
2018-01-23T00:47:38.312Z,37.85
2018-01-23T00:48:10.311Z,37.85
2018-01-23T00:48:42.344Z,38.23
2018-01-23T00:49:14.331Z,37.85
2018-01-23T00:49:46.325Z,37.75
2018-01-23T00:50:18.371Z,38.04
2018-01-23T00:50:50.355Z,37.75
2018-01-23T00:51:22.384Z,38.04
2018-01-23T00:51:54.463Z,38.04
2018-01-23T00:52:26.525Z,38.23
2018-01-23T00:52:58.527Z,37.83
2018-01-23T00:53:30.499Z,37.95
2018-01-23T00:54:02.495Z,37.75
2018-01-23T00:54:34.487Z,38.04
2018-01-23T00:55:06.528Z,38.04
2018-01-23T00:55:38.503Z,38.02
2018-01-23T00:56:10.531Z,38.04
2018-01-23T00:56:42.544Z,38.04
2018-01-23T00:57:14.585Z,38.23
2018-01-23T00:57:46.610Z,38.23
2018-01-23T00:58:18.628Z,38.04
2018-01-23T00:58:50.661Z,38.12
2018-01-23T00:59:22.668Z,38.02
2018-01-23T00:59:54.739Z,37.73
2018-01-23T01:00:26.757Z,37.93
2018-01-23T01:00:58.734Z,38.04
2018-01-23T01:01:30.771Z,38.02
2018-01-23T01:02:03.651Z,38.14
2018-01-23T01:02:35.713Z,38.02
2018-01-23T01:03:07.711Z,38.12
2018-01-23T01:03:39.731Z,38.12
2018-01-23T01:04:11.730Z,37.95
2018-01-23T01:04:44.424Z,38.12
2018-01-23T01:05:16.461Z,38.12
2018-01-23T01:05:48.488Z,38.04
2018-01-23T01:06:20.480Z,38.04
2018-01-23T01:06:52.501Z,38.12
2018-01-23T01:07:25.429Z,37.83
2018-01-23T01:07:57.477Z,38.14
2018-01-23T01:08:30.037Z,38.04
2018-01-23T01:09:02.042Z,38.02
2018-01-23T01:09:34.020Z,38.04
2018-01-23T01:10:06.081Z,38.02
2018-01-23T01:10:38.089Z,37.93
2018-01-23T01:11:10.136Z,38.14
2018-01-23T01:11:42.163Z,38.02
2018-01-23T01:12:14.170Z,38.12
2018-01-23T01:12:46.288Z,38.02
2018-01-23T01:13:18.342Z,38.02
2018-01-23T01:13:50.457Z,38.02
2018-01-23T01:14:22.485Z,38.02
2018-01-23T01:14:54.475Z,38.21
2018-01-23T01:15:26.595Z,38.02
2018-01-23T01:15:58.592Z,38.02
2018-01-23T01:16:30.551Z,38.12
2018-01-23T01:17:02.596Z,38.02
2018-01-23T01:17:34.593Z,38.04
2018-01-23T01:18:06.598Z,38.02
2018-01-23T01:18:38.650Z,38.21
2018-01-23T01:19:10.655Z,38.12
2018-01-23T01:19:42.668Z,38.14
2018-01-23T01:20:14.687Z,38.04
2018-01-23T01:20:46.682Z,38.12
2018-01-23T01:21:18.694Z,38.02
2018-01-23T01:21:50.735Z,38.04
2018-01-23T01:22:22.713Z,38.04
2018-01-23T01:22:54.733Z,38.21
2018-01-23T01:23:26.711Z,38.02
2018-01-23T01:23:58.751Z,38.02
2018-01-23T01:24:30.818Z,38.02
2018-01-23T01:25:02.808Z,38.12
2018-01-23T01:25:34.845Z,38.02
2018-01-23T01:26:06.869Z,38.21
2018-01-23T01:26:38.972Z,38.31
2018-01-23T01:27:11.870Z,38.12
2018-01-23T01:27:43.873Z,38.23
2018-01-23T01:28:15.890Z,37.93
2018-01-23T01:28:47.979Z,38.02
2018-01-23T01:29:20.029Z,38.21
2018-01-23T01:29:52.007Z,38.12
2018-01-23T01:30:23.972Z,38.31
2018-01-23T01:30:55.968Z,38.14
2018-01-23T01:31:27.972Z,38.21
2018-01-23T01:32:00.855Z,38.21
2018-01-23T01:32:32.842Z,38.04
2018-01-23T01:33:04.881Z,38.04
2018-01-23T01:33:36.979Z,37.93
2018-01-23T01:34:09.003Z,38.12
2018-01-23T01:34:41.040Z,38.12
2018-01-23T01:35:13.074Z,38.12
2018-01-23T01:35:45.839Z,38.12
2018-01-23T01:36:17.884Z,37.85
2018-01-23T01:36:49.909Z,38.14
2018-01-23T01:37:21.978Z,38.12
2018-01-23T01:37:54.065Z,38.12
2018-01-23T01:38:26.108Z,38.21
2018-01-23T01:38:58.094Z,38.02
2018-01-23T01:39:30.099Z,38.12
2018-01-23T01:40:02.106Z,38.02
2018-01-23T01:40:34.088Z,38.14
2018-01-23T01:41:06.040Z,38.04
2018-01-23T01:41:38.054Z,38.14
2018-01-23T01:42:10.055Z,38.02
2018-01-23T01:42:42.074Z,38.21
2018-01-23T01:43:14.065Z,38.12
2018-01-23T01:43:46.090Z,38.02
2018-01-23T01:44:18.099Z,38.02
2018-01-23T01:44:50.106Z,37.93
2018-01-23T01:45:22.120Z,38.12
2018-01-23T01:45:54.161Z,38.02
2018-01-23T01:46:26.177Z,38.14
2018-01-23T01:46:58.182Z,38.04
2018-01-23T01:47:30.234Z,38.02
2018-01-23T01:48:02.245Z,38.02
2018-01-23T01:48:34.753Z,38.02
2018-01-23T01:49:06.811Z,38.02
2018-01-23T01:49:38.788Z,37.93
2018-01-23T01:50:10.877Z,38.14
2018-01-23T01:50:42.861Z,37.93
2018-01-23T01:51:14.848Z,38.12
2018-01-23T01:51:46.862Z,38.12
2018-01-23T01:52:18.918Z,37.95
2018-01-23T01:52:51.781Z,37.93
2018-01-23T01:53:23.846Z,38.02
2018-01-23T01:53:55.839Z,37.95
2018-01-23T01:54:27.824Z,38.14
2018-01-23T01:54:59.873Z,38.12
2018-01-23T01:55:31.896Z,38.12
2018-01-23T01:56:04.465Z,38.04
2018-01-23T01:56:36.489Z,38.02
2018-01-23T01:57:08.516Z,37.83
2018-01-23T01:57:40.484Z,38.04
2018-01-23T01:58:12.513Z,37.93
2018-01-23T01:58:44.523Z,37.93
2018-01-23T01:59:16.531Z,38.02
2018-01-23T01:59:48.605Z,38.04
2018-01-23T02:00:20.650Z,37.93
2018-01-23T02:00:52.688Z,37.95
2018-01-23T02:01:24.681Z,37.93
2018-01-23T02:01:56.667Z,38.02
2018-01-23T02:02:28.646Z,38.02
2018-01-23T02:03:00.602Z,38.04
2018-01-23T02:03:32.693Z,37.93
2018-01-23T02:04:04.720Z,37.93
2018-01-23T02:04:36.729Z,38.14
2018-01-23T02:05:08.760Z,38.02
2018-01-23T02:05:40.740Z,37.63
2018-01-23T02:06:12.769Z,37.93
2018-01-23T02:06:44.827Z,37.93
2018-01-23T02:07:16.918Z,38.02
2018-01-23T02:07:49.027Z,37.93
2018-01-23T02:08:21.026Z,38.02
2018-01-23T02:08:53.043Z,37.93
2018-01-23T02:09:24.999Z,38.02
2018-01-23T02:09:57.027Z,37.95
2018-01-23T02:10:29.075Z,37.93
2018-01-23T02:11:01.187Z,38.02
2018-01-23T02:11:34.189Z,37.95
2018-01-23T02:12:06.230Z,37.83
2018-01-23T02:12:38.273Z,37.95
2018-01-23T02:13:10.263Z,37.93
2018-01-23T02:13:42.880Z,38.02
2018-01-23T02:14:14.868Z,38.02
2018-01-23T02:14:46.875Z,38.02
2018-01-23T02:15:18.893Z,38.02
2018-01-23T02:15:50.910Z,37.93
2018-01-23T02:16:23.038Z,37.93
2018-01-23T02:16:55.044Z,38.02
2018-01-23T02:17:27.863Z,37.93
2018-01-23T02:17:59.852Z,38.02
2018-01-23T02:18:31.873Z,37.93
2018-01-23T02:19:03.879Z,37.93
2018-01-23T02:19:35.883Z,38.02
2018-01-23T02:20:08.001Z,37.83
2018-01-23T02:20:40.113Z,37.83
2018-01-23T02:21:12.191Z,37.93
2018-01-23T02:21:44.204Z,37.95
2018-01-23T02:22:16.190Z,37.95
2018-01-23T02:22:48.214Z,38.02
2018-01-23T02:23:20.252Z,37.83
2018-01-23T02:23:52.880Z,37.83
2018-01-23T02:24:24.899Z,37.93
2018-01-23T02:24:56.955Z,37.93
2018-01-23T02:25:28.955Z,37.93
2018-01-23T02:26:00.959Z,37.93
2018-01-23T02:26:32.973Z,38.04
2018-01-23T02:27:04.973Z,38.02
2018-01-23T02:27:36.963Z,37.93
2018-01-23T02:28:08.963Z,38.02
2018-01-23T02:28:40.980Z,38.02
2018-01-23T02:29:12.994Z,38.02
2018-01-23T02:29:44.971Z,37.93
2018-01-23T02:30:17.003Z,38.02
2018-01-23T02:30:49.092Z,37.93
2018-01-23T02:31:21.107Z,37.93
2018-01-23T02:31:53.094Z,38.02
2018-01-23T02:32:25.075Z,37.95
2018-01-23T02:32:57.070Z,38.02
2018-01-23T02:33:29.061Z,38.04
2018-01-23T02:34:01.059Z,38.12
2018-01-23T02:34:33.065Z,38.02
2018-01-23T02:35:05.046Z,37.93
2018-01-23T02:35:37.058Z,38.12
2018-01-23T02:36:09.086Z,38.02
2018-01-23T02:36:41.805Z,37.95
2018-01-23T02:37:13.865Z,37.93
2018-01-23T02:37:45.825Z,38.12
2018-01-23T02:38:17.824Z,38.12
2018-01-23T02:38:49.826Z,38.12
2018-01-23T02:39:21.843Z,38.12
2018-01-23T02:39:53.864Z,38.02
2018-01-23T02:40:25.964Z,37.93
2018-01-23T02:40:57.964Z,38.12
2018-01-23T02:41:29.935Z,37.83
2018-01-23T02:42:01.978Z,38.12
2018-01-23T02:42:34.013Z,38.12
2018-01-23T02:43:06.063Z,38.02
2018-01-23T02:43:38.111Z,37.93
2018-01-23T02:44:10.128Z,37.93
2018-01-23T02:44:42.140Z,38.12
2018-01-23T02:45:14.148Z,37.93
2018-01-23T02:45:46.169Z,37.93
2018-01-23T02:46:18.201Z,38.02
2018-01-23T02:46:50.326Z,38.12
2018-01-23T02:47:22.349Z,38.02
2018-01-23T02:47:54.349Z,38.12
2018-01-23T02:48:26.378Z,38.14
2018-01-23T02:48:58.389Z,38.02
2018-01-23T02:49:30.423Z,38.02
2018-01-23T02:50:02.462Z,38.04
2018-01-23T02:50:34.516Z,38.21
2018-01-23T02:51:06.480Z,38.14
2018-01-23T02:51:38.454Z,38.04
2018-01-23T02:52:10.440Z,38.02
2018-01-23T02:52:42.425Z,38.12
2018-01-23T02:53:14.430Z,38.12
2018-01-23T02:53:46.441Z,38.02
2018-01-23T02:54:18.442Z,38.12
2018-01-23T02:54:50.475Z,38.23
2018-01-23T02:55:22.486Z,38.02
2018-01-23T02:55:54.489Z,38.21
2018-01-23T02:56:26.481Z,38.04
2018-01-23T02:56:58.437Z,38.12
2018-01-23T02:57:30.417Z,38.21
2018-01-23T02:58:02.455Z,38.04
2018-01-23T02:58:34.491Z,37.93
2018-01-23T02:59:06.560Z,38.02
2018-01-23T02:59:38.474Z,38.12
2018-01-23T03:00:10.511Z,37.95
2018-01-23T03:00:42.507Z,38.12
2018-01-23T03:01:14.513Z,38.21
2018-01-23T03:01:46.502Z,38.12
2018-01-23T03:02:18.500Z,38.12
2018-01-23T03:02:50.506Z,38.12
2018-01-23T03:03:22.626Z,38.21
2018-01-23T03:03:54.648Z,38.21
2018-01-23T03:04:26.655Z,38.21
2018-01-23T03:04:58.679Z,38.02
2018-01-23T03:05:32.121Z,38.12
2018-01-23T03:06:04.151Z,38.14
2018-01-23T03:06:36.118Z,38.12
2018-01-23T03:07:08.124Z,38.02
2018-01-23T03:07:40.124Z,38.21
2018-01-23T03:08:12.086Z,38.12
2018-01-23T03:08:44.132Z,38.02
2018-01-23T03:09:16.333Z,38.23
2018-01-23T03:09:48.472Z,38.21
2018-01-23T03:10:20.536Z,38.21
2018-01-23T03:10:52.577Z,38.14
2018-01-23T03:11:24.593Z,38.02
2018-01-23T03:11:56.631Z,38.02
2018-01-23T03:12:28.671Z,38.02
2018-01-23T03:13:00.636Z,38.12
2018-01-23T03:13:32.652Z,38.02
2018-01-23T03:14:04.669Z,38.02
2018-01-23T03:14:36.672Z,38.02
2018-01-23T03:15:08.648Z,38.02
2018-01-23T03:15:40.669Z,38.02
2018-01-23T03:16:12.634Z,38.12
2018-01-23T03:16:45.062Z,38.31
2018-01-23T03:17:17.090Z,38.02
2018-01-23T03:17:49.082Z,38.02
2018-01-23T03:18:21.098Z,38.02
2018-01-23T03:18:53.102Z,38.21
2018-01-23T03:19:25.116Z,38.21
2018-01-23T03:19:57.133Z,38.21
2018-01-23T03:20:29.146Z,38.02
2018-01-23T03:21:01.284Z,38.23
2018-01-23T03:21:33.301Z,38.21
2018-01-23T03:22:05.308Z,37.93
2018-01-23T03:22:37.338Z,38.02
2018-01-23T03:23:09.318Z,38.21
2018-01-23T03:23:41.354Z,38.02
2018-01-23T03:24:14.111Z,38.21
2018-01-23T03:24:46.118Z,38.12
2018-01-23T03:25:18.111Z,38.23
2018-01-23T03:25:50.156Z,38.21
2018-01-23T03:26:22.130Z,37.83
2018-01-23T03:26:54.139Z,38.02
2018-01-23T03:27:27.080Z,38.12
2018-01-23T03:27:59.084Z,38.31
2018-01-23T03:28:31.072Z,38.02
2018-01-23T03:29:03.111Z,37.93
2018-01-23T03:29:35.234Z,38.21
2018-01-23T03:30:07.200Z,38.23
2018-01-23T03:30:40.206Z,38.41
2018-01-23T03:31:12.212Z,38.02
2018-01-23T03:31:44.216Z,38.21
2018-01-23T03:32:16.227Z,38.21
2018-01-23T03:32:48.203Z,38.02
2018-01-23T03:33:20.171Z,38.21
2018-01-23T03:33:52.181Z,38.21
2018-01-23T03:34:24.205Z,38.23
2018-01-23T03:34:56.257Z,38.21
2018-01-23T03:35:28.261Z,38.21
2018-01-23T03:36:00.295Z,38.21
2018-01-23T03:36:32.258Z,38.31
2018-01-23T03:37:04.818Z,38.21
2018-01-23T03:37:36.829Z,38.21
2018-01-23T03:38:08.859Z,38.12
2018-01-23T03:38:40.863Z,38.21
2018-01-23T03:39:12.870Z,37.93
2018-01-23T03:39:44.857Z,38.21
2018-01-23T03:40:16.879Z,38.02
2018-01-23T03:40:48.825Z,38.12
2018-01-23T03:41:20.844Z,38.02
2018-01-23T03:41:52.856Z,38.21
2018-01-23T03:42:24.892Z,38.21
2018-01-23T03:42:57.019Z,38.21
2018-01-23T03:43:29.740Z,38.12
2018-01-23T03:44:01.728Z,38.21
2018-01-23T03:44:33.706Z,38.12
2018-01-23T03:45:05.764Z,38.02
2018-01-23T03:45:37.722Z,38.21
2018-01-23T03:46:09.757Z,38.02
2018-01-23T03:46:41.777Z,38.12
2018-01-23T03:47:13.801Z,38.12
2018-01-23T03:47:45.814Z,38.23
2018-01-23T03:48:17.776Z,38.02
2018-01-23T03:48:49.805Z,38.04
2018-01-23T03:49:21.849Z,38.21
2018-01-23T03:49:53.826Z,38.02
2018-01-23T03:50:25.857Z,38.14
2018-01-23T03:50:57.891Z,38.21
2018-01-23T03:51:30.040Z,38.31
2018-01-23T03:52:02.020Z,38.31
2018-01-23T03:52:34.033Z,38.02
2018-01-23T03:53:06.075Z,38.12
2018-01-23T03:53:38.096Z,38.04
2018-01-23T03:54:10.086Z,38.21
2018-01-23T03:54:42.096Z,37.93
2018-01-23T03:55:14.101Z,38.23
2018-01-23T03:55:46.158Z,38.21
2018-01-23T03:56:18.195Z,38.21
2018-01-23T03:56:50.240Z,38.02
2018-01-23T03:57:23.159Z,38.02
2018-01-23T03:57:55.267Z,38.12
2018-01-23T03:58:27.434Z,38.02
2018-01-23T03:58:59.613Z,38.31
2018-01-23T03:59:31.632Z,38.02
2018-01-23T04:00:03.618Z,38.02
2018-01-23T04:00:36.319Z,38.02
2018-01-23T04:01:09.124Z,38.02
2018-01-23T04:01:41.107Z,38.12
2018-01-23T04:02:13.189Z,38.33
2018-01-23T04:02:45.157Z,38.02
2018-01-23T04:03:17.169Z,38.02
2018-01-23T04:03:49.281Z,37.93
2018-01-23T04:04:21.279Z,38.12
2018-01-23T04:04:53.244Z,38.14
2018-01-23T04:05:25.234Z,38.02
2018-01-23T04:05:57.232Z,38.21
2018-01-23T04:06:29.212Z,38.04
2018-01-23T04:07:01.219Z,38.31
2018-01-23T04:07:33.766Z,38.23
2018-01-23T04:08:05.777Z,38.02
2018-01-23T04:08:38.271Z,38.02
2018-01-23T04:09:10.343Z,38.02
2018-01-23T04:09:42.379Z,38.14
2018-01-23T04:10:14.402Z,38.23
2018-01-23T04:10:46.405Z,38.02
2018-01-23T04:11:18.515Z,38.14
2018-01-23T04:11:50.479Z,38.12
2018-01-23T04:12:22.455Z,38.12
2018-01-23T04:12:54.473Z,38.12
2018-01-23T04:13:26.492Z,38.31
2018-01-23T04:13:58.492Z,38.12
2018-01-23T04:14:30.524Z,38.14
2018-01-23T04:15:02.506Z,38.04
2018-01-23T04:15:34.603Z,38.02
2018-01-23T04:16:06.607Z,38.14
2018-01-23T04:16:38.641Z,38.14
2018-01-23T04:17:10.685Z,38.21
2018-01-23T04:17:42.720Z,38.12
2018-01-23T04:18:14.713Z,37.95
2018-01-23T04:18:46.694Z,38.14
2018-01-23T04:19:18.685Z,38.04
2018-01-23T04:19:50.667Z,38.02
2018-01-23T04:20:22.747Z,38.12
2018-01-23T04:20:55.643Z,38.14
2018-01-23T04:21:27.618Z,38.23
2018-01-23T04:21:59.656Z,38.12
2018-01-23T04:22:31.657Z,38.14
2018-01-23T04:23:03.642Z,38.04
2018-01-23T04:23:35.650Z,38.02
2018-01-23T04:24:07.642Z,38.23
2018-01-23T04:24:39.610Z,38.04
2018-01-23T04:25:11.588Z,38.14
2018-01-23T04:25:44.138Z,38.23
2018-01-23T04:26:16.988Z,38.14
2018-01-23T04:26:48.982Z,38.14
2018-01-23T04:27:21.091Z,38.33
2018-01-23T04:27:53.106Z,38.14
2018-01-23T04:28:25.099Z,37.95
2018-01-23T04:28:57.107Z,38.14
2018-01-23T04:29:29.647Z,37.95
2018-01-23T04:30:01.682Z,38.23
2018-01-23T04:30:33.720Z,38.04
2018-01-23T04:31:06.425Z,38.04
2018-01-23T04:31:38.454Z,38.14
2018-01-23T04:32:10.409Z,38.14
2018-01-23T04:32:42.419Z,38.23
2018-01-23T04:33:14.441Z,38.04
2018-01-23T04:33:46.432Z,38.14
2018-01-23T04:34:18.440Z,37.95
2018-01-23T04:34:50.454Z,38.14
2018-01-23T04:35:22.487Z,38.23
2018-01-23T04:35:54.505Z,38.23
2018-01-23T04:36:26.488Z,38.23
2018-01-23T04:36:59.451Z,38.14
2018-01-23T04:37:31.462Z,37.95
2018-01-23T04:38:04.051Z,37.95
2018-01-23T04:38:36.051Z,38.04
2018-01-23T04:39:08.868Z,38.23
2018-01-23T04:39:40.872Z,38.04
2018-01-23T04:40:12.948Z,38.23
2018-01-23T04:40:44.905Z,38.04
2018-01-23T04:41:16.978Z,38.14
2018-01-23T04:41:49.098Z,38.04
2018-01-23T04:42:21.053Z,38.04
2018-01-23T04:42:53.052Z,38.33
2018-01-23T04:43:25.065Z,38.04
2018-01-23T04:43:57.085Z,38.33
2018-01-23T04:44:29.084Z,38.23
2018-01-23T04:45:01.121Z,38.23
2018-01-23T04:45:33.135Z,38.14
2018-01-23T04:46:05.975Z,38.23
2018-01-23T04:46:37.987Z,38.14
2018-01-23T04:47:09.999Z,38.04
2018-01-23T04:47:41.976Z,38.33
2018-01-23T04:48:14.032Z,38.23
2018-01-23T04:48:46.143Z,38.23
2018-01-23T04:49:18.187Z,38.23
2018-01-23T04:49:50.229Z,38.23
2018-01-23T04:50:22.227Z,38.23
2018-01-23T04:50:54.753Z,38.14
2018-01-23T04:51:26.716Z,38.14
2018-01-23T04:51:59.283Z,38.04
2018-01-23T04:52:31.293Z,38.14
2018-01-23T04:53:03.346Z,38.43
2018-01-23T04:53:35.329Z,38.14
2018-01-23T04:54:07.356Z,38.33
2018-01-23T04:54:39.359Z,38.14
2018-01-23T04:55:11.357Z,38.33
2018-01-23T04:55:43.439Z,38.33
2018-01-23T04:56:15.554Z,38.23
2018-01-23T04:56:47.546Z,38.23
2018-01-23T04:57:19.619Z,38.14
2018-01-23T04:57:51.690Z,38.23
2018-01-23T04:58:23.670Z,38.23
2018-01-23T04:58:55.679Z,38.14
2018-01-23T04:59:27.772Z,38.14
2018-01-23T04:59:59.720Z,38.23
2018-01-23T05:00:31.757Z,38.33
2018-01-23T05:01:04.662Z,38.33
2018-01-23T05:01:37.237Z,38.33
2018-01-23T05:02:09.261Z,38.21
2018-01-23T05:02:41.389Z,38.43
2018-01-23T05:03:13.416Z,38.23
2018-01-23T05:03:45.425Z,38.23
2018-01-23T05:04:17.484Z,38.33
2018-01-23T05:04:49.511Z,38.33
2018-01-23T05:05:22.087Z,38.33
2018-01-23T05:05:54.967Z,38.43
2018-01-23T05:06:26.976Z,38.33
2018-01-23T05:06:58.997Z,38.33
2018-01-23T05:07:31.033Z,38.23
2018-01-23T05:08:03.042Z,38.33
2018-01-23T05:08:35.085Z,38.33
2018-01-23T05:09:07.131Z,38.23
2018-01-23T05:09:39.197Z,38.14
2018-01-23T05:10:11.208Z,38.33
2018-01-23T05:10:43.260Z,38.33
2018-01-23T05:11:15.221Z,38.33
2018-01-23T05:11:47.259Z,38.33
2018-01-23T05:12:19.242Z,38.23
2018-01-23T05:12:51.805Z,38.33
2018-01-23T05:13:23.809Z,38.33
2018-01-23T05:13:55.930Z,38.33
2018-01-23T05:14:27.957Z,38.33
2018-01-23T05:14:59.965Z,38.33
2018-01-23T05:15:31.988Z,38.23
2018-01-23T05:16:04.012Z,38.71
2018-01-23T05:16:36.028Z,38.14
2018-01-23T05:17:08.063Z,38.33
2018-01-23T05:17:40.053Z,38.14
2018-01-23T05:18:12.034Z,38.33
2018-01-23T05:18:45.697Z,38.33
2018-01-23T05:19:17.694Z,38.43
2018-01-23T05:19:49.672Z,38.62
2018-01-23T05:20:21.686Z,38.14
2018-01-23T05:20:53.721Z,38.71
2018-01-23T05:21:25.722Z,38.71
2018-01-23T05:21:57.740Z,38.62
2018-01-23T05:22:29.815Z,38.33
2018-01-23T05:23:01.978Z,38.71
2018-01-23T05:23:34.009Z,38.71
2018-01-23T05:24:06.016Z,38.71
2018-01-23T05:24:38.037Z,38.23
2018-01-23T05:25:10.012Z,38.23
2018-01-23T05:25:42.028Z,38.71
2018-01-23T05:26:14.047Z,38.14
2018-01-23T05:26:46.040Z,38.14
2018-01-23T05:27:18.044Z,38.33
2018-01-23T05:27:50.042Z,38.71
2018-01-23T05:28:22.050Z,38.14
2018-01-23T05:28:54.035Z,38.53
2018-01-23T05:29:26.044Z,38.33
2018-01-23T05:29:58.054Z,38.71
2018-01-23T05:30:30.047Z,38.7
2018-01-23T05:31:02.107Z,38.62
2018-01-23T05:31:35.014Z,38.71
2018-01-23T05:32:07.177Z,38.71
2018-01-23T05:32:39.338Z,38.62
2018-01-23T05:33:11.329Z,38.71
2018-01-23T05:33:43.347Z,38.71
2018-01-23T05:34:16.205Z,38.33
2018-01-23T05:34:48.199Z,38.62
2018-01-23T05:35:20.226Z,38.62
2018-01-23T05:35:52.177Z,38.62
2018-01-23T05:36:24.157Z,38.33
2018-01-23T05:36:56.186Z,38.33
2018-01-23T05:37:28.213Z,38.23
2018-01-23T05:38:00.273Z,38.71
2018-01-23T05:38:32.288Z,38.14
2018-01-23T05:39:04.298Z,38.71
2018-01-23T05:39:36.293Z,37.95
2018-01-23T05:40:09.013Z,38.62
2018-01-23T05:40:41.109Z,38.04
2018-01-23T05:41:13.119Z,38.14
2018-01-23T05:41:45.142Z,38.43
2018-01-23T05:42:17.265Z,38.53
2018-01-23T05:42:49.256Z,38.62
2018-01-23T05:43:21.268Z,37.95
2018-01-23T05:43:53.333Z,38.71
2018-01-23T05:44:25.314Z,38.62
2018-01-23T05:44:57.329Z,38.62
2018-01-23T05:45:29.397Z,38.53
2018-01-23T05:46:01.383Z,38.43
2018-01-23T05:46:33.384Z,38.62
2018-01-23T05:47:05.407Z,38.43
2018-01-23T05:47:38.186Z,38.04
2018-01-23T05:48:10.910Z,38.62
2018-01-23T05:48:42.931Z,38.33
2018-01-23T05:49:15.021Z,38.43
2018-01-23T05:49:47.096Z,38.81
2018-01-23T05:50:19.687Z,38.33
2018-01-23T05:50:51.679Z,38.41
2018-01-23T05:51:23.781Z,38.43
2018-01-23T05:51:55.806Z,38.43
2018-01-23T05:52:27.823Z,38.43
2018-01-23T05:52:59.801Z,38.53
2018-01-23T05:53:31.811Z,38.43
2018-01-23T05:54:04.512Z,37.85
2018-01-23T05:54:36.488Z,38.53
2018-01-23T05:55:08.452Z,38.53
2018-01-23T05:55:40.475Z,38.43
2018-01-23T05:56:12.471Z,38.33
2018-01-23T05:56:44.490Z,38.33
2018-01-23T05:57:16.542Z,38.53
2018-01-23T05:57:48.674Z,38.33
2018-01-23T05:58:20.699Z,38.33
2018-01-23T05:58:52.715Z,38.33
2018-01-23T05:59:24.788Z,38.33
2018-01-23T05:59:56.803Z,38.43
2018-01-23T06:00:28.803Z,38.33
2018-01-23T06:01:00.810Z,38.33
2018-01-23T06:01:32.859Z,38.33
2018-01-23T06:02:04.869Z,38.33
2018-01-23T06:02:36.877Z,38.53
2018-01-23T06:03:09.028Z,38.53
2018-01-23T06:03:41.796Z,38.04
2018-01-23T06:04:13.747Z,38.53
2018-01-23T06:04:45.720Z,38.71
2018-01-23T06:05:17.731Z,38.43
2018-01-23T06:05:49.749Z,38.43
2018-01-23T06:06:21.759Z,38.43
2018-01-23T06:06:53.801Z,38.04
2018-01-23T06:07:25.748Z,38.33
2018-01-23T06:07:57.749Z,38.33
2018-01-23T06:08:29.775Z,38.33
2018-01-23T06:09:01.827Z,38.53
2018-01-23T06:09:33.849Z,38.53
2018-01-23T06:10:05.828Z,38.33
2018-01-23T06:10:37.835Z,38.53
2018-01-23T06:11:09.845Z,38.23
2018-01-23T06:11:41.980Z,38.43
2018-01-23T06:12:14.846Z,38.33
2018-01-23T06:12:46.892Z,38.33
2018-01-23T06:13:18.899Z,38.23
2018-01-23T06:13:50.909Z,38.33
2018-01-23T06:14:22.924Z,38.33
2018-01-23T06:14:54.889Z,38.33
2018-01-23T06:15:26.905Z,38.04
2018-01-23T06:15:58.881Z,38.33
2018-01-23T06:16:30.866Z,38.33
2018-01-23T06:17:02.988Z,38.33
2018-01-23T06:17:35.068Z,38.33
2018-01-23T06:18:07.081Z,38.33
2018-01-23T06:18:39.078Z,38.43
2018-01-23T06:19:11.128Z,38.43
2018-01-23T06:19:43.117Z,38.43
2018-01-23T06:20:15.120Z,38.14
2018-01-23T06:20:47.135Z,38.71
2018-01-23T06:21:19.142Z,38.53
2018-01-23T06:21:51.090Z,38.43
2018-01-23T06:22:23.083Z,38.14
2018-01-23T06:22:55.094Z,38.14
2018-01-23T06:23:27.148Z,38.62
2018-01-23T06:23:59.181Z,38.62
2018-01-23T06:24:31.231Z,38.33
2018-01-23T06:25:03.286Z,38.23
2018-01-23T06:25:35.292Z,38.14
2018-01-23T06:26:07.322Z,38.23
2018-01-23T06:26:39.347Z,38.33
2018-01-23T06:27:11.419Z,38.62
2018-01-23T06:27:43.456Z,38.23
2018-01-23T06:28:15.480Z,38.23
2018-01-23T06:28:47.502Z,38.33
2018-01-23T06:29:19.545Z,38.43
2018-01-23T06:29:51.548Z,38.62
2018-01-23T06:30:23.633Z,38.14
2018-01-23T06:30:55.800Z,38.23
2018-01-23T06:31:27.862Z,38.71
2018-01-23T06:32:00.630Z,38.33
2018-01-23T06:32:32.647Z,38.33
2018-01-23T06:33:04.665Z,38.33
2018-01-23T06:33:36.746Z,38.71
2018-01-23T06:34:08.697Z,38.43
2018-01-23T06:34:40.756Z,38.33
2018-01-23T06:35:12.803Z,38.43
2018-01-23T06:35:44.800Z,38.33
2018-01-23T06:36:16.767Z,38.23
2018-01-23T06:36:48.866Z,38.33
2018-01-23T06:37:20.936Z,38.43
2018-01-23T06:37:52.922Z,38.43
2018-01-23T06:38:25.420Z,38.43
2018-01-23T06:38:57.600Z,38.23
2018-01-23T06:39:29.590Z,38.43
2018-01-23T06:40:02.305Z,38.81
2018-01-23T06:40:34.373Z,38.33
2018-01-23T06:41:06.405Z,38.33
2018-01-23T06:41:38.447Z,38.43
2018-01-23T06:42:10.472Z,38.43
2018-01-23T06:42:42.495Z,38.14
2018-01-23T06:43:15.442Z,38.33
2018-01-23T06:43:47.454Z,38.43
2018-01-23T06:44:19.484Z,38.14
2018-01-23T06:44:51.646Z,38.23
2018-01-23T06:45:23.786Z,38.41
2018-01-23T06:45:55.809Z,38.33
2018-01-23T06:46:27.749Z,38.12
2018-01-23T06:47:00.379Z,38.41
2018-01-23T06:47:32.365Z,38.43
2018-01-23T06:48:04.402Z,38.33
2018-01-23T06:48:36.964Z,38.43
2018-01-23T06:49:09.096Z,38.41
2018-01-23T06:49:41.120Z,38.43
2018-01-23T06:50:13.114Z,38.33
2018-01-23T06:50:45.170Z,38.31
2018-01-23T06:51:17.170Z,38.43
2018-01-23T06:51:49.171Z,38.14
2018-01-23T06:52:21.182Z,38.23
2018-01-23T06:52:53.171Z,38.31